createdAt,value
2023-03-12T00:01:21.032Z,98217.02
2023-03-12T00:04:23.665Z,98218.98
2023-03-12T00:07:26.259Z,98212.64
2023-03-12T00:10:29.226Z,98213.30
2023-03-12T00:13:31.907Z,98215.41
2023-03-12T00:16:34.656Z,98212.40
2023-03-12T00:19:37.503Z,98213.23
2023-03-12T00:22:40.677Z,98208.77
2023-03-12T00:25:46.704Z,98217.45
2023-03-12T00:28:50.150Z,98217.69
2023-03-12T00:31:53.040Z,98215.42
2023-03-12T00:34:56.013Z,98217.04
2023-03-12T00:37:58.664Z,98212.81
2023-03-12T00:41:01.523Z,98210.65
2023-03-12T00:44:04.401Z,98216.19
2023-03-12T00:47:07.261Z,98212.95
2023-03-12T00:50:10.248Z,98217.92
2023-03-12T00:53:13.140Z,98214.21
2023-03-12T00:56:16.028Z,98211.58
2023-03-12T00:59:18.771Z,98211.77
2023-03-12T01:02:21.507Z,98206.48
2023-03-12T01:05:24.196Z,98203.44
2023-03-12T01:08:27.031Z,98203.16
2023-03-12T01:11:31.129Z,98202.52
2023-03-12T01:14:33.851Z,98198.18
2023-03-12T01:17:37.187Z,98200.27
2023-03-12T01:20:41.100Z,98191.70
2023-03-12T01:23:43.800Z,98191.10
2023-03-12T01:26:46.454Z,98198.95
2023-03-12T01:29:51.490Z,98194.80
2023-03-12T01:32:54.510Z,98193.94
2023-03-12T01:35:57.553Z,98194.82
2023-03-12T01:39:00.314Z,98198.56
2023-03-12T01:42:03.298Z,98192.92
2023-03-12T01:45:06.586Z,98189.21
2023-03-12T01:48:10.384Z,98189.70
2023-03-12T01:51:14.573Z,98188.42
2023-03-12T01:54:20.889Z,98182.34
2023-03-12T01:57:38.041Z,98184.39
2023-03-12T02:00:45.696Z,98185.17
2023-03-12T02:03:52.194Z,98180.14
2023-03-12T02:07:07.471Z,98187.89
2023-03-12T02:10:11.469Z,98189.05
2023-03-12T02:13:14.251Z,98187.75
2023-03-12T02:16:20.321Z,98192.00
2023-03-12T02:19:49.410Z,98182.00
2023-03-12T02:23:00.931Z,98190.25
2023-03-12T02:26:04.476Z,98186.61
2023-03-12T02:29:09.674Z,98190.20
2023-03-12T02:32:24.568Z,98195.13
2023-03-12T02:35:27.509Z,98199.75
2023-03-12T02:38:36.423Z,98200.07
2023-03-12T02:41:44.274Z,98202.67
2023-03-12T02:44:47.603Z,98201.79
2023-03-12T02:47:50.482Z,98208.66
2023-03-12T02:50:53.286Z,98212.33
2023-03-12T02:53:55.980Z,98209.92
2023-03-12T02:56:59.178Z,98215.61
2023-03-12T03:00:04.894Z,98219.17
2023-03-12T03:03:08.041Z,98221.61
2023-03-12T03:06:10.926Z,98224.96
2023-03-12T03:09:14.111Z,98226.77
2023-03-12T03:12:16.839Z,98232.61
2023-03-12T03:15:19.956Z,98230.44
2023-03-12T03:18:23.696Z,98240.60
2023-03-12T03:21:27.323Z,98247.71
2023-03-12T03:24:30.136Z,98252.73
2023-03-12T03:27:32.814Z,98261.88
2023-03-12T03:30:35.837Z,98264.25
2023-03-12T03:33:40.718Z,98260.90
2023-03-12T03:36:43.880Z,98262.00
2023-03-12T03:39:48.983Z,98259.36
2023-03-12T03:42:51.912Z,98264.08
2023-03-12T03:46:01.897Z,98266.41
2023-03-12T03:49:05.581Z,98263.42
2023-03-12T03:52:09.338Z,98261.23
2023-03-12T03:55:15.126Z,98253.27
2023-03-12T03:58:18.233Z,98244.71
2023-03-12T04:01:21.459Z,98244.05
2023-03-12T04:04:24.630Z,98243.11
2023-03-12T04:07:28.448Z,98240.70
2023-03-12T04:10:32.040Z,98240.11
2023-03-12T04:13:35.046Z,98251.24
2023-03-12T04:16:38.099Z,98251.30
2023-03-12T04:19:41.210Z,98255.02
2023-03-12T04:22:44.883Z,98256.94
2023-03-12T04:25:48.280Z,98257.54
2023-03-12T04:28:50.948Z,98257.41
2023-03-12T04:31:54.186Z,98259.45
2023-03-12T04:34:57.615Z,98260.48
2023-03-12T04:38:01.567Z,98260.08
2023-03-12T04:41:09.197Z,98261.83
2023-03-12T04:44:13.532Z,98271.59
2023-03-12T04:47:16.491Z,98276.55
2023-03-12T04:50:19.448Z,98275.71
2023-03-12T04:53:23.234Z,98278.99
2023-03-12T04:56:26.686Z,98282.86
2023-03-12T04:59:29.641Z,98282.14
2023-03-12T05:02:32.472Z,98278.66
2023-03-12T05:05:35.972Z,98274.74
2023-03-12T05:08:39.200Z,98278.98
2023-03-12T05:11:41.941Z,98287.65
2023-03-12T05:14:45.996Z,98299.11
2023-03-12T05:17:48.922Z,98306.79
2023-03-12T05:21:06.181Z,98305.41
2023-03-12T05:24:09.978Z,98308.08
2023-03-12T05:27:12.942Z,98306.29
2023-03-12T05:30:16.768Z,98305.05
2023-03-12T05:33:19.497Z,98309.89
2023-03-12T05:36:22.730Z,98324.05
2023-03-12T05:39:26.097Z,98324.35
2023-03-12T05:42:31.764Z,98322.00
2023-03-12T05:45:35.100Z,98335.19
2023-03-12T05:48:38.746Z,98332.30
2023-03-12T05:51:43.409Z,98346.03
2023-03-12T05:54:46.705Z,98357.18
2023-03-12T05:57:49.601Z,98357.38
2023-03-12T06:00:52.707Z,98360.77
2023-03-12T06:03:56.509Z,98369.33
2023-03-12T06:07:00.607Z,98369.95
2023-03-12T06:10:06.554Z,98375.25
2023-03-12T06:13:09.405Z,98378.77
2023-03-12T06:16:15.784Z,98380.80
2023-03-12T06:19:18.623Z,98386.71
2023-03-12T06:22:24.207Z,98389.23
2023-03-12T06:25:27.207Z,98394.70
2023-03-12T06:28:29.913Z,98400.26
2023-03-12T06:31:32.836Z,98401.08
2023-03-12T06:34:35.630Z,98397.30
2023-03-12T06:37:40.801Z,98387.77
2023-03-12T06:40:43.751Z,98390.32
2023-03-12T06:43:46.816Z,98376.76
2023-03-12T06:46:49.668Z,98385.07
2023-03-12T06:49:52.398Z,98391.50
2023-03-12T06:52:55.170Z,98393.14
2023-03-12T06:55:57.821Z,98397.48
2023-03-12T06:59:00.691Z,98414.80
2023-03-12T07:02:03.451Z,98409.19
2023-03-12T07:05:07.234Z,98411.74
2023-03-12T07:08:10.470Z,98412.96
2023-03-12T07:11:15.510Z,98416.68
2023-03-12T07:14:20.428Z,98419.64
2023-03-12T07:17:24.737Z,98420.67
2023-03-12T07:20:27.764Z,98423.94
2023-03-12T07:23:30.783Z,98425.67
2023-03-12T07:26:35.301Z,98424.02
2023-03-12T07:29:38.163Z,98429.70
2023-03-12T07:32:41.445Z,98443.14
2023-03-12T07:35:45.853Z,98436.42
2023-03-12T07:38:48.766Z,98431.86
2023-03-12T07:41:51.648Z,98435.16
2023-03-12T07:44:54.839Z,98430.80
2023-03-12T07:47:57.966Z,98435.35
2023-03-12T07:51:00.992Z,98443.08
2023-03-12T07:54:04.147Z,98448.52
2023-03-12T07:57:07.502Z,98459.77
2023-03-12T08:00:11.246Z,98467.08
2023-03-12T08:03:17.560Z,98470.60
2023-03-12T08:06:22.045Z,98473.65
2023-03-12T08:09:25.543Z,98476.06
2023-03-12T08:12:28.759Z,98473.08
2023-03-12T08:15:32.126Z,98477.13
2023-03-12T08:18:34.991Z,98481.66
2023-03-12T08:21:38.063Z,98481.05
2023-03-12T08:24:40.904Z,98493.00
2023-03-12T08:27:43.718Z,98492.44
2023-03-12T08:30:50.224Z,98496.34
2023-03-12T08:33:53.292Z,98500.24
2023-03-12T08:36:56.637Z,98498.68
2023-03-12T08:40:00.197Z,98499.25
2023-03-12T08:43:03.468Z,98504.16
2023-03-12T08:46:06.671Z,98507.35
2023-03-12T08:49:09.575Z,98507.23
2023-03-12T08:52:12.423Z,98511.33
2023-03-12T08:55:15.462Z,98509.70
2023-03-12T08:58:18.532Z,98513.39
2023-03-12T09:01:21.317Z,98513.00
2023-03-12T09:04:24.665Z,98512.09
2023-03-12T09:07:27.576Z,98515.71
2023-03-12T09:10:31.302Z,98516.20
2023-03-12T09:13:55.001Z,98523.89
2023-03-12T09:16:58.066Z,98530.79
2023-03-12T09:20:01.513Z,98527.02
2023-03-12T09:23:07.777Z,98534.13
2023-03-12T09:26:11.989Z,98536.11
2023-03-12T09:29:14.740Z,98531.58
2023-03-12T09:32:17.835Z,98525.29
2023-03-12T09:35:20.701Z,98535.63
2023-03-12T09:38:24.023Z,98532.67
2023-03-12T09:41:29.100Z,98531.21
2023-03-12T09:44:43.463Z,98536.00
2023-03-12T09:47:48.811Z,98530.84
2023-03-12T09:50:52.066Z,98536.71
2023-03-12T09:53:57.297Z,98545.16
2023-03-12T09:57:03.055Z,98545.95
2023-03-12T10:00:08.228Z,98548.17
2023-03-12T10:03:20.330Z,98554.22
2023-03-12T10:06:26.472Z,98558.46
2023-03-12T10:09:37.696Z,98562.52
2023-03-12T10:12:47.596Z,98562.21
2023-03-12T10:15:53.883Z,98559.46
2023-03-12T10:19:05.774Z,98565.52
2023-03-12T10:22:27.328Z,98566.45
2023-03-12T10:25:43.168Z,98565.67
2023-03-12T10:28:49.306Z,98565.60
2023-03-12T10:31:55.520Z,98564.59
2023-03-12T10:35:00.270Z,98567.20
2023-03-12T10:38:04.520Z,98568.50
2023-03-12T10:41:21.484Z,98571.97
2023-03-12T10:44:25.295Z,98572.52
2023-03-12T10:47:38.938Z,98570.45
2023-03-12T10:50:41.613Z,98574.41
2023-03-12T10:53:48.590Z,98580.52
2023-03-12T10:56:51.736Z,98586.59
2023-03-12T11:00:06.529Z,98589.98
2023-03-12T11:06:37.211Z,98585.50
2023-03-12T11:09:40.079Z,98588.86
2023-03-12T11:12:51.834Z,98589.14
2023-03-12T11:15:55.385Z,98588.30
2023-03-12T11:19:03.682Z,98592.70
2023-03-12T11:22:08.807Z,98590.28
2023-03-12T11:25:20.565Z,98585.63
2023-03-12T11:28:25.437Z,98584.26
2023-03-12T11:31:37.937Z,98585.52
2023-03-12T11:34:41.891Z,98587.35
2023-03-12T11:37:44.507Z,98588.34
2023-03-12T11:41:03.971Z,98588.61
2023-03-12T11:44:18.160Z,98589.02
2023-03-12T11:47:27.391Z,98590.48
2023-03-12T11:50:49.142Z,98594.97
2023-03-12T11:53:51.739Z,98595.06
2023-03-12T11:56:56.999Z,98598.41
2023-03-12T12:00:14.642Z,98600.58
2023-03-12T12:03:32.581Z,98593.18
2023-03-12T12:06:46.294Z,98599.45
2023-03-12T12:09:52.830Z,98598.65
2023-03-12T12:13:14.286Z,98599.94
2023-03-12T12:16:29.990Z,98607.27
2023-03-12T12:19:43.909Z,98606.19
2023-03-12T12:23:03.389Z,98606.73
2023-03-12T12:26:10.782Z,98603.27
2023-03-12T12:29:28.912Z,98604.90
2023-03-12T12:32:50.578Z,98599.96
2023-03-12T12:35:53.293Z,98610.19
2023-03-12T12:39:01.393Z,98611.73
2023-03-12T12:42:06.045Z,98614.03
2023-03-12T12:45:13.683Z,98616.69
2023-03-12T12:48:19.333Z,98614.41
2023-03-12T12:51:25.572Z,98618.80
2023-03-12T12:54:28.465Z,98618.20
2023-03-12T12:57:54.146Z,98622.80
2023-03-12T13:00:59.271Z,98626.20
2023-03-12T13:04:07.030Z,98623.78
2023-03-12T13:07:13.043Z,98627.73
2023-03-12T13:10:34.414Z,98630.23
2023-03-12T13:13:37.304Z,98626.89
2023-03-12T13:16:42.659Z,98628.00
2023-03-12T13:19:52.313Z,98628.59
2023-03-12T13:23:13.991Z,98631.52
2023-03-12T13:26:29.245Z,98629.21
2023-03-12T13:29:36.628Z,98631.59
2023-03-12T13:32:59.626Z,98625.27
2023-03-12T13:36:04.279Z,98624.27
2023-03-12T13:39:07.072Z,98621.61
2023-03-12T13:42:25.083Z,98625.77
2023-03-12T13:45:31.148Z,98629.86
2023-03-12T13:48:35.340Z,98635.23
2023-03-12T13:51:59.278Z,98640.69
2023-03-12T13:55:03.407Z,98646.36
2023-03-12T13:58:15.896Z,98647.22
2023-03-12T14:01:20.891Z,98644.61
2023-03-12T14:04:25.613Z,98648.02
2023-03-12T14:07:28.317Z,98643.00
2023-03-12T14:10:40.359Z,98647.36
2023-03-12T14:13:53.347Z,98659.45
2023-03-12T14:16:57.440Z,98665.54
2023-03-12T14:20:00.190Z,98664.53
2023-03-12T14:23:07.379Z,98670.63
2023-03-12T14:26:16.277Z,98669.92
2023-03-12T14:29:25.607Z,98674.33
2023-03-12T14:32:31.298Z,98678.40
2023-03-12T14:35:39.592Z,98670.52
2023-03-12T14:38:43.866Z,98675.17
2023-03-12T14:41:49.556Z,98675.14
2023-03-12T14:44:56.112Z,98672.52
2023-03-12T14:47:59.150Z,98677.73
2023-03-12T14:51:02.786Z,98677.98
2023-03-12T14:54:05.784Z,98682.10
2023-03-12T14:57:14.168Z,98683.16
2023-03-12T15:00:30.208Z,98689.24
2023-03-12T15:03:40.865Z,98689.02
2023-03-12T15:06:45.631Z,98682.55
2023-03-12T15:09:52.314Z,98680.22
2023-03-12T15:12:56.561Z,98680.59
2023-03-12T15:15:59.784Z,98679.34
2023-03-12T15:19:03.951Z,98678.95
2023-03-12T15:22:09.748Z,98682.20
2023-03-12T15:25:21.955Z,98677.96
2023-03-12T15:28:26.681Z,98678.27
2023-03-12T15:31:46.452Z,98675.86
2023-03-12T15:34:49.860Z,98682.56
2023-03-12T15:37:53.563Z,98682.81
2023-03-12T15:41:00.232Z,98683.64
2023-03-12T15:44:03.441Z,98690.23
2023-03-12T15:47:09.990Z,98692.45
2023-03-12T15:50:19.005Z,98697.63
2023-03-12T15:53:23.120Z,98699.39
2023-03-12T15:56:32.217Z,98698.49
2023-03-12T15:59:35.084Z,98697.23
2023-03-12T16:02:58.038Z,98692.07
2023-03-12T16:06:00.867Z,98691.62
2023-03-12T16:09:05.002Z,98693.64
2023-03-12T16:12:09.619Z,98692.78
2023-03-12T16:15:17.362Z,98693.92
2023-03-12T16:18:21.149Z,98699.15
2023-03-12T16:21:23.992Z,98697.66
2023-03-12T16:24:26.683Z,98700.48
2023-03-12T16:27:32.814Z,98701.30
2023-03-12T16:30:36.922Z,98702.45
2023-03-12T16:33:39.842Z,98710.36
2023-03-12T16:36:42.492Z,98717.39
2023-03-12T16:39:46.483Z,98723.86
2023-03-12T16:42:50.696Z,98721.60
2023-03-12T16:45:54.449Z,98724.59
2023-03-12T16:48:57.460Z,98728.17
2023-03-12T16:52:00.240Z,98731.04
2023-03-12T16:55:02.863Z,98731.00
2023-03-12T16:58:07.322Z,98735.32
2023-03-12T17:01:14.435Z,98736.02
2023-03-12T17:04:17.860Z,98740.05
2023-03-12T17:07:20.864Z,98731.45
2023-03-12T17:10:24.053Z,98730.27
2023-03-12T17:13:28.162Z,98731.14
2023-03-12T17:16:31.096Z,98730.83
2023-03-12T17:19:34.015Z,98728.06
2023-03-12T17:22:37.143Z,98723.85
2023-03-12T17:25:41.955Z,98724.83
2023-03-12T17:28:44.797Z,98728.18
2023-03-12T17:31:47.491Z,98731.58
2023-03-12T17:34:57.687Z,98734.55
2023-03-12T17:38:00.543Z,98726.79
2023-03-12T17:41:09.370Z,98725.47
2023-03-12T17:44:15.991Z,98723.77
2023-03-12T17:47:18.840Z,98715.27
2023-03-12T17:50:21.586Z,98716.35
2023-03-12T17:53:24.805Z,98715.18
2023-03-12T17:56:28.501Z,98717.52
2023-03-12T17:59:31.537Z,98722.77
2023-03-12T18:02:34.374Z,98723.13
2023-03-12T18:05:43.079Z,98729.50
2023-03-12T18:08:46.285Z,98735.65
2023-03-12T18:11:48.915Z,98741.36
2023-03-12T18:14:51.883Z,98748.73
2023-03-12T18:17:56.956Z,98751.02
2023-03-12T18:20:59.975Z,98747.14
2023-03-12T18:24:13.424Z,98750.06
2023-03-12T18:27:17.066Z,98751.38
2023-03-12T18:30:21.165Z,98751.03
2023-03-12T18:33:24.358Z,98751.27
2023-03-12T18:36:27.129Z,98733.90
2023-03-12T18:39:30.182Z,98730.32
2023-03-12T18:42:35.439Z,98733.95
2023-03-12T18:45:41.338Z,98736.07
2023-03-12T18:48:44.527Z,98742.56
2023-03-12T18:51:47.861Z,98746.14
2023-03-12T18:54:50.653Z,98749.20
2023-03-12T18:57:53.320Z,98742.20
2023-03-12T19:00:57.206Z,98730.05
2023-03-12T19:03:59.992Z,98726.36
2023-03-12T19:07:05.230Z,98719.63
2023-03-12T19:10:08.664Z,98715.71
2023-03-12T19:13:11.376Z,98714.70
2023-03-12T19:16:17.786Z,98723.10
2023-03-12T19:19:21.843Z,98718.96
2023-03-12T19:22:24.821Z,98719.58
2023-03-12T19:25:27.825Z,98720.70
2023-03-12T19:28:31.298Z,98724.54
2023-03-12T19:31:34.078Z,98721.27
2023-03-12T19:34:36.943Z,98721.77
2023-03-12T19:37:39.947Z,98729.08
2023-03-12T19:40:48.225Z,98731.58
2023-03-12T19:43:50.962Z,98726.70
2023-03-12T19:46:53.676Z,98723.06
2023-03-12T19:49:56.484Z,98720.27
2023-03-12T19:52:59.227Z,98717.98
2023-03-12T19:56:02.309Z,98716.34
2023-03-12T19:59:05.087Z,98712.02
2023-03-12T20:02:10.958Z,98705.41
2023-03-12T20:05:13.698Z,98707.22
2023-03-12T20:08:17.490Z,98705.74
2023-03-12T20:11:20.290Z,98707.17
2023-03-12T20:14:23.497Z,98707.64
2023-03-12T20:17:26.250Z,98704.43
2023-03-12T20:20:28.927Z,98707.95
2023-03-12T20:23:32.908Z,98707.83
2023-03-12T20:26:37.023Z,98703.86
2023-03-12T20:29:39.800Z,98705.52
2023-03-12T20:32:43.015Z,98702.25
2023-03-12T20:35:45.985Z,98696.61
2023-03-12T20:38:49.445Z,98706.81
2023-03-12T20:41:52.240Z,98709.00
2023-03-12T20:44:55.002Z,98708.89
2023-03-12T20:47:58.911Z,98710.44
2023-03-12T20:51:01.621Z,98706.44
2023-03-12T20:54:04.666Z,98708.67
2023-03-12T20:57:07.537Z,98699.50
2023-03-12T21:00:10.838Z,98687.41
2023-03-12T21:03:14.223Z,98673.11
2023-03-12T21:06:17.005Z,98668.73
2023-03-12T21:09:21.416Z,98668.21
2023-03-12T21:12:24.075Z,98669.20
2023-03-12T21:15:26.861Z,98665.04
2023-03-12T21:18:32.394Z,98667.30
2023-03-12T21:21:36.603Z,98666.87
2023-03-12T21:24:39.502Z,98667.70
2023-03-12T21:27:50.639Z,98666.98
2023-03-12T21:30:54.155Z,98657.67
2023-03-12T21:33:57.205Z,98653.57
2023-03-12T21:36:59.839Z,98644.73
2023-03-12T21:40:03.607Z,98634.66
2023-03-12T21:43:06.481Z,98637.23
2023-03-12T21:46:10.547Z,98631.02
2023-03-12T21:49:14.196Z,98623.55
2023-03-12T21:52:16.967Z,98627.50
2023-03-12T21:55:19.635Z,98637.81
2023-03-12T21:58:22.396Z,98636.11
2023-03-12T22:01:25.320Z,98633.88
2023-03-12T22:04:28.360Z,98632.02
2023-03-12T22:07:31.227Z,98622.60
2023-03-12T22:10:33.904Z,98627.34
2023-03-12T22:13:39.013Z,98631.95
2023-03-12T22:16:41.799Z,98639.13
2023-03-12T22:19:45.514Z,98634.13
2023-03-12T22:22:48.276Z,98629.35
2023-03-12T22:25:51.209Z,98622.77
2023-03-12T22:28:55.074Z,98618.34
2023-03-12T22:31:57.717Z,98615.51
2023-03-12T22:35:00.347Z,98611.91
2023-03-12T22:38:02.992Z,98609.52
2023-03-12T22:41:16.190Z,98607.37
2023-03-12T22:44:18.960Z,98601.90
2023-03-12T22:47:21.667Z,98594.59
2023-03-12T22:50:24.525Z,98596.58
2023-03-12T22:53:27.196Z,98596.58
2023-03-12T22:56:29.790Z,98597.43
2023-03-12T22:59:32.542Z,98590.94
2023-03-12T23:02:35.415Z,98584.00
2023-03-12T23:05:38.195Z,98581.79
2023-03-12T23:08:41.519Z,98580.71
2023-03-12T23:11:44.263Z,98578.61
2023-03-12T23:14:47.032Z,98580.67
2023-03-12T23:17:49.683Z,98587.64
2023-03-12T23:20:57.771Z,98590.02
2023-03-12T23:24:00.688Z,98590.23
2023-03-12T23:27:03.653Z,98586.40
2023-03-12T23:30:06.749Z,98579.69
2023-03-12T23:33:09.524Z,98572.85
2023-03-12T23:36:17.436Z,98571.17
2023-03-12T23:39:22.501Z,98571.92
2023-03-12T23:42:27.060Z,98567.61
2023-03-12T23:45:29.718Z,98563.92
2023-03-12T23:48:34.003Z,98564.83
2023-03-12T23:51:38.554Z,98563.73
2023-03-12T23:54:41.212Z,98556.33
2023-03-12T23:57:43.912Z,98546.23
